createdAt,value
2019-05-13T00:01:34.955Z,102373.58
2019-05-13T00:04:07.690Z,102377.88
2019-05-13T00:06:50.237Z,102378.52
2019-05-13T00:09:08.121Z,102386.20
2019-05-13T00:11:37.195Z,102375.66
2019-05-13T00:14:06.293Z,102381.00
2019-05-13T00:16:35.353Z,102373.53
2019-05-13T00:19:04.784Z,102371.34
2019-05-13T00:21:34.151Z,102372.77
2019-05-13T00:24:06.405Z,102364.82
2019-05-13T00:26:35.928Z,102372.98
2019-05-13T00:29:05.170Z,102372.45
2019-05-13T00:31:36.033Z,102370.41
2019-05-13T00:34:07.999Z,102371.50
2019-05-13T00:36:37.398Z,102366.13
2019-05-13T00:39:08.030Z,102364.70
2019-05-13T00:41:37.101Z,102366.34
2019-05-13T00:44:09.362Z,102362.91
2019-05-13T00:46:38.439Z,102358.58
2019-05-13T00:49:07.473Z,102359.72
2019-05-13T00:51:36.848Z,102364.67
2019-05-13T00:54:05.911Z,102363.13
2019-05-13T00:56:34.978Z,102361.50
2019-05-13T00:59:04.494Z,102356.23
2019-05-13T01:01:33.651Z,102361.97
2019-05-13T01:04:06.523Z,102361.23
2019-05-13T01:06:35.649Z,102361.19
2019-05-13T01:09:06.954Z,102360.32
2019-05-13T01:11:36.383Z,102367.04
2019-05-13T01:14:05.740Z,102360.98
2019-05-13T01:16:35.182Z,102356.09
2019-05-13T01:19:04.344Z,102358.47
2019-05-13T01:21:34.699Z,102362.67
2019-05-13T01:24:05.484Z,102361.75
2019-05-13T01:26:34.537Z,102356.91
2019-05-13T01:29:04.263Z,102359.00
2019-05-13T01:31:34.387Z,102362.55
2019-05-13T01:34:04.525Z,102355.67
2019-05-13T01:36:34.248Z,102357.09
2019-05-13T01:39:05.700Z,102362.94
2019-05-13T01:41:34.772Z,102357.04
2019-05-13T01:44:06.870Z,102356.59
2019-05-13T01:46:36.418Z,102363.70
2019-05-13T01:49:05.471Z,102361.52
2019-05-13T01:51:34.833Z,102363.90
2019-05-13T01:54:06.736Z,102366.17
2019-05-13T01:56:35.792Z,102375.13
2019-05-13T01:59:04.931Z,102374.50
2019-05-13T02:01:34.075Z,102370.08
2019-05-13T02:04:04.375Z,102375.57
2019-05-13T02:06:33.923Z,102378.94
2019-05-13T02:09:04.602Z,102375.95
2019-05-13T02:11:34.195Z,102376.20
2019-05-13T02:14:06.389Z,102379.00
2019-05-13T02:16:35.539Z,102370.52
2019-05-13T02:19:04.703Z,102377.03
2019-05-13T02:21:33.826Z,102377.70
2019-05-13T02:24:04.515Z,102381.85
2019-05-13T02:26:34.485Z,102380.31
2019-05-13T02:29:04.005Z,102384.39
2019-05-13T02:31:45.443Z,102380.77
2019-05-13T02:34:06.986Z,102380.05
2019-05-13T02:36:36.048Z,102388.36
2019-05-13T02:39:06.986Z,102385.42
2019-05-13T02:41:36.375Z,102384.86
2019-05-13T02:44:05.767Z,102387.84
2019-05-13T02:46:34.841Z,102392.19
2019-05-13T02:49:03.929Z,102389.31
2019-05-13T02:51:33.146Z,102388.63
2019-05-13T02:54:03.704Z,102381.85
2019-05-13T02:56:33.383Z,102385.87
2019-05-13T02:59:03.962Z,102388.29
2019-05-13T03:01:33.529Z,102393.05
2019-05-13T03:04:03.534Z,102388.32
2019-05-13T03:06:33.615Z,102391.26
2019-05-13T03:09:03.670Z,102399.19
2019-05-13T03:11:33.316Z,102391.31
2019-05-13T03:14:03.994Z,102392.65
2019-05-13T03:16:45.163Z,102394.20
2019-05-13T03:19:14.329Z,102399.97
2019-05-13T03:21:43.463Z,102398.22
2019-05-13T03:24:13.468Z,102398.55
2019-05-13T03:26:42.939Z,102400.45
2019-05-13T03:29:13.190Z,102406.20
2019-05-13T03:31:46.510Z,102410.47
2019-05-13T03:34:15.811Z,102406.37
2019-05-13T03:36:46.247Z,102400.45
2019-05-13T03:39:16.567Z,102403.24
2019-05-13T03:41:46.815Z,102400.08
2019-05-13T03:44:17.363Z,102400.18
2019-05-13T03:46:47.797Z,102399.84
2019-05-13T03:49:18.359Z,102404.15
2019-05-13T03:51:47.794Z,102405.50
2019-05-13T03:54:16.918Z,102411.41
2019-05-13T03:56:46.020Z,102403.61
2019-05-13T03:59:15.113Z,102407.14
2019-05-13T04:01:44.193Z,102412.19
2019-05-13T04:04:13.287Z,102413.59
2019-05-13T04:06:43.024Z,102414.84
2019-05-13T04:09:22.492Z,102417.94
2019-05-13T04:11:43.873Z,102422.23
2019-05-13T04:14:12.961Z,102434.21
2019-05-13T04:16:42.987Z,102440.50
2019-05-13T04:19:12.481Z,102440.50
2019-05-13T04:21:42.918Z,102447.89
2019-05-13T04:24:12.441Z,102454.80
2019-05-13T04:26:43.270Z,102455.67
2019-05-13T04:29:13.698Z,102461.45
2019-05-13T04:31:42.735Z,102463.22
2019-05-13T04:34:12.514Z,102466.16
2019-05-13T04:36:43.059Z,102460.01
2019-05-13T04:39:13.023Z,102461.64
2019-05-13T04:41:42.472Z,102457.77
2019-05-13T04:44:13.060Z,102464.66
2019-05-13T04:46:43.389Z,102453.23
2019-05-13T04:49:12.998Z,102465.94
2019-05-13T04:51:42.463Z,102471.53
2019-05-13T04:54:12.994Z,102466.12
2019-05-13T04:56:42.502Z,102471.28
2019-05-13T04:59:12.520Z,102467.37
2019-05-13T05:02:22.060Z,102467.30
2019-05-13T05:04:56.487Z,102470.47
2019-05-13T05:08:03.095Z,102475.58
2019-05-13T05:11:02.417Z,102472.45
2019-05-13T05:13:57.411Z,102477.27
2019-05-13T05:17:03.232Z,102477.75
2019-05-13T05:20:32.303Z,102475.41
2019-05-13T05:23:37.028Z,102471.70
2019-05-13T05:26:32.024Z,102483.66
2019-05-13T05:29:32.197Z,102482.17
2019-05-13T05:32:12.401Z,102484.86
2019-05-13T05:35:07.824Z,102490.58
2019-05-13T05:38:04.143Z,102494.28
2019-05-13T05:40:34.927Z,102490.81
2019-05-13T05:43:05.137Z,102483.89
2019-05-13T05:45:36.854Z,102483.05
2019-05-13T05:48:07.081Z,102492.69
2019-05-13T05:50:37.143Z,102495.60
2019-05-13T05:53:06.516Z,102494.09
2019-05-13T05:55:36.500Z,102496.03
2019-05-13T05:58:07.558Z,102500.32
2019-05-13T06:00:41.331Z,102504.44
2019-05-13T06:03:13.561Z,102497.05
2019-05-13T06:05:41.930Z,102497.34
2019-05-13T06:08:11.470Z,102500.25
2019-05-13T06:10:47.265Z,102503.66
2019-05-13T06:13:12.185Z,102504.49
2019-05-13T06:15:42.137Z,102505.14
2019-05-13T06:18:11.729Z,102502.53
2019-05-13T06:20:41.832Z,102502.98
2019-05-13T06:23:11.556Z,102497.28
2019-05-13T06:25:42.787Z,102496.88
2019-05-13T06:28:12.503Z,102495.44
2019-05-13T06:30:41.960Z,102493.72
2019-05-13T06:33:12.246Z,102491.09
2019-05-13T06:35:44.529Z,102496.50
2019-05-13T06:38:12.110Z,102484.13
2019-05-13T06:40:42.435Z,102484.08
2019-05-13T06:43:12.082Z,102483.17
2019-05-13T06:45:42.062Z,102477.39
2019-05-13T06:48:11.799Z,102477.42
2019-05-13T06:50:41.723Z,102473.68
2019-05-13T06:53:12.743Z,102474.30
2019-05-13T06:55:42.912Z,102472.98
2019-05-13T06:58:12.064Z,102475.08
2019-05-13T07:00:42.720Z,102478.81
2019-05-13T07:03:12.916Z,102487.53
2019-05-13T07:05:42.481Z,102484.58
2019-05-13T07:08:12.202Z,102493.19
2019-05-13T07:10:41.732Z,102493.04
2019-05-13T07:13:11.500Z,102486.44
2019-05-13T07:15:41.635Z,102485.66
2019-05-13T07:18:11.758Z,102487.80
2019-05-13T07:20:42.730Z,102478.95
2019-05-13T07:23:12.484Z,102484.44
2019-05-13T07:25:42.124Z,102484.67
2019-05-13T07:28:12.669Z,102485.61
2019-05-13T07:30:43.092Z,102484.81
2019-05-13T07:33:12.982Z,102476.63
2019-05-13T07:35:45.005Z,102477.11
2019-05-13T07:38:13.433Z,102476.33
2019-05-13T07:40:42.974Z,102474.99
2019-05-13T07:43:12.557Z,102487.07
2019-05-13T07:45:42.463Z,102482.25
2019-05-13T07:48:21.122Z,102481.92
2019-05-13T07:50:53.621Z,102478.04
2019-05-13T07:53:18.692Z,102479.17
2019-05-13T07:55:44.776Z,102469.41
2019-05-13T07:58:13.866Z,102472.80
2019-05-13T08:00:43.168Z,102470.89
2019-05-13T08:03:12.659Z,102462.64
2019-05-13T08:05:42.027Z,102467.94
2019-05-13T08:08:11.856Z,102464.64
2019-05-13T08:10:41.791Z,102467.99
2019-05-13T08:13:11.851Z,102472.69
2019-05-13T08:15:42.206Z,102480.73
2019-05-13T08:18:12.283Z,102476.47
2019-05-13T08:20:42.215Z,102472.58
2019-05-13T08:23:11.951Z,102477.53
2019-05-13T08:25:42.393Z,102468.41
2019-05-13T08:28:12.775Z,102463.80
2019-05-13T08:30:42.851Z,102465.05
2019-05-13T08:33:12.714Z,102460.16
2019-05-13T08:35:47.046Z,102470.58
2019-05-13T08:38:13.372Z,102464.20
2019-05-13T08:40:42.714Z,102468.86
2019-05-13T08:43:12.484Z,102459.43
2019-05-13T08:45:42.294Z,102465.47
2019-05-13T08:48:12.803Z,102462.91
2019-05-13T08:50:43.054Z,102465.77
2019-05-13T08:53:12.682Z,102457.55
2019-05-13T08:55:42.789Z,102460.16
2019-05-13T08:58:13.476Z,102464.22
2019-05-13T09:00:52.794Z,102452.36
2019-05-13T09:03:22.810Z,102454.27
2019-05-13T09:05:52.319Z,102452.66
2019-05-13T09:08:22.663Z,102448.72
2019-05-13T09:10:56.096Z,102446.30
2019-05-13T09:13:23.294Z,102446.74
2019-05-13T09:15:52.449Z,102436.27
2019-05-13T09:18:22.777Z,102442.92
2019-05-13T09:20:52.345Z,102443.22
2019-05-13T09:23:22.324Z,102437.80
2019-05-13T09:25:52.325Z,102438.16
2019-05-13T09:28:22.057Z,102433.03
2019-05-13T09:30:53.002Z,102439.38
2019-05-13T09:33:22.423Z,102435.41
2019-05-13T09:35:53.643Z,102430.85
2019-05-13T09:38:22.443Z,102429.88
2019-05-13T09:40:52.894Z,102425.24
2019-05-13T09:43:22.522Z,102427.69
2019-05-13T09:45:52.507Z,102427.02
2019-05-13T09:48:22.808Z,102422.39
2019-05-13T09:50:52.170Z,102418.70
2019-05-13T09:53:22.175Z,102417.86
2019-05-13T09:55:53.802Z,102418.98
2019-05-13T09:58:23.038Z,102421.55
2019-05-13T10:00:53.161Z,102414.71
2019-05-13T10:03:28.888Z,102427.16
2019-05-13T10:05:53.461Z,102413.83
2019-05-13T10:08:22.611Z,102420.45
2019-05-13T10:10:53.142Z,102423.99
2019-05-13T10:13:23.314Z,102413.70
2019-05-13T10:15:52.561Z,102415.70
2019-05-13T10:18:22.410Z,102407.16
2019-05-13T10:23:25.170Z,102396.70
2019-05-13T10:25:57.310Z,102394.77
2019-05-13T10:28:26.837Z,102399.95
2019-05-13T10:30:55.960Z,102397.61
2019-05-13T10:33:25.989Z,102393.63
2019-05-13T10:35:55.370Z,102399.61
2019-05-13T10:38:27.746Z,102405.32
2019-05-13T10:40:55.405Z,102400.01
2019-05-13T10:43:31.458Z,102398.07
2019-05-13T10:45:55.371Z,102393.03
2019-05-13T10:48:25.907Z,102391.77
2019-05-13T10:50:54.984Z,102381.53
2019-05-13T10:53:24.901Z,102384.19
2019-05-13T10:55:54.136Z,102385.13
2019-05-13T10:58:23.661Z,102383.67
2019-05-13T11:00:54.746Z,102379.09
2019-05-13T11:03:23.806Z,102379.30
2019-05-13T11:05:53.127Z,102384.52
2019-05-13T11:08:22.651Z,102373.27
2019-05-13T11:10:53.045Z,102372.55
2019-05-13T11:13:23.522Z,102370.91
2019-05-13T11:18:24.583Z,102374.03
2019-05-13T11:20:53.738Z,102358.49
2019-05-13T11:23:23.585Z,102360.19
2019-05-13T11:25:52.825Z,102354.69
2019-05-13T11:28:21.944Z,102358.11
2019-05-13T11:30:52.151Z,102361.06
2019-05-13T11:33:22.289Z,102358.67
2019-05-13T11:35:52.281Z,102352.14
2019-05-13T11:38:22.357Z,102345.94
2019-05-13T11:40:52.494Z,102338.75
2019-05-13T11:43:27.238Z,102341.10
2019-05-13T11:45:53.188Z,102346.88
2019-05-13T11:48:23.454Z,102341.45
2019-05-13T11:50:54.116Z,102336.44
2019-05-13T11:53:32.785Z,102331.92
2019-05-13T11:55:56.614Z,102330.77
2019-05-13T11:58:25.748Z,102332.28
2019-05-13T12:00:57.908Z,102329.17
2019-05-13T12:03:27.118Z,102324.77
2019-05-13T12:05:56.581Z,102317.87
2019-05-13T12:08:25.779Z,102311.42
2019-05-13T12:10:55.008Z,102304.04
2019-05-13T12:13:24.483Z,102311.94
2019-05-13T12:15:54.615Z,102310.84
2019-05-13T12:18:24.081Z,102297.98
2019-05-13T12:20:54.261Z,102292.47
2019-05-13T12:23:23.494Z,102295.31
2019-05-13T12:25:53.214Z,102294.86
2019-05-13T12:28:22.609Z,102303.33
2019-05-13T12:30:53.124Z,102289.75
2019-05-13T12:33:22.974Z,102289.31
2019-05-13T12:35:53.246Z,102281.08
2019-05-13T12:38:23.085Z,102283.01
2019-05-13T12:40:53.121Z,102287.27
2019-05-13T12:43:24.292Z,102279.12
2019-05-13T12:45:53.672Z,102282.14
2019-05-13T12:48:23.190Z,102269.91
2019-05-13T12:50:53.932Z,102265.13
2019-05-13T12:53:23.420Z,102265.02
2019-05-13T12:55:56.675Z,102266.08
2019-05-13T12:58:23.996Z,102264.63
2019-05-13T13:00:53.788Z,102251.53
2019-05-13T13:03:23.562Z,102243.06
2019-05-13T13:05:53.445Z,102246.84
2019-05-13T13:08:38.714Z,102253.61
2019-05-13T13:10:54.194Z,102243.80
2019-05-13T13:13:52.407Z,102244.67
2019-05-13T13:15:54.375Z,102249.88
2019-05-13T13:18:23.445Z,102246.81
2019-05-13T13:21:00.295Z,102239.29
2019-05-13T13:23:24.001Z,102233.64
2019-05-13T13:25:56.999Z,102234.92
2019-05-13T13:28:24.425Z,102229.27
2019-05-13T13:30:53.657Z,102233.25
2019-05-13T13:33:22.811Z,102222.20
2019-05-13T13:35:58.838Z,102230.16
2019-05-13T13:38:25.116Z,102220.08
2019-05-13T13:40:54.125Z,102210.51
2019-05-13T13:43:25.412Z,102218.66
2019-05-13T13:46:25.346Z,102220.53
2019-05-13T13:48:26.034Z,102218.01
2019-05-13T13:50:57.043Z,102213.57
2019-05-13T13:53:26.487Z,102200.02
2019-05-13T13:55:56.362Z,102206.13
2019-05-13T13:58:43.444Z,102199.34
2019-05-13T14:01:17.739Z,102204.23
2019-05-13T14:03:46.096Z,102205.38
2019-05-13T14:06:12.727Z,102208.33
2019-05-13T14:06:25.608Z,102397.88
2019-05-13T14:06:28.715Z,102368.95
2019-05-13T14:08:41.879Z,102200.19
2019-05-13T14:11:11.841Z,102190.35
2019-05-13T14:13:43.862Z,102184.41
2019-05-13T14:16:25.045Z,102182.52
2019-05-13T14:18:43.775Z,102184.61
2019-05-13T14:21:15.153Z,102181.73
2019-05-13T14:23:48.569Z,102181.50
2019-05-13T14:26:17.649Z,102176.27
2019-05-13T14:28:46.809Z,102177.36
2019-05-13T14:31:15.865Z,102188.81
2019-05-13T14:33:44.982Z,102184.49
2019-05-13T14:36:14.524Z,102184.15
2019-05-13T14:38:43.657Z,102185.19
2019-05-13T14:41:12.802Z,102172.13
2019-05-13T14:43:42.199Z,102176.64
2019-05-13T14:46:12.651Z,102173.59
2019-05-13T14:48:43.421Z,102165.39
2019-05-13T14:51:12.999Z,102166.84
2019-05-13T14:53:42.204Z,102162.84
2019-05-13T14:56:14.237Z,102163.50
2019-05-13T14:58:42.577Z,102160.47
2019-05-13T15:01:18.556Z,102153.77
2019-05-13T15:03:42.507Z,102161.77
2019-05-13T15:06:12.075Z,102158.62
2019-05-13T15:08:42.155Z,102159.63
2019-05-13T15:11:12.550Z,102166.72
2019-05-13T15:13:42.506Z,102151.17
2019-05-13T15:16:11.803Z,102159.08
2019-05-13T15:18:41.734Z,102156.16
2019-05-13T15:21:12.160Z,102150.15
2019-05-13T15:23:42.343Z,102155.23
2019-05-13T15:26:11.893Z,102144.61
2019-05-13T15:28:42.113Z,102141.97
2019-05-13T15:31:11.634Z,102142.06
2019-05-13T15:33:41.782Z,102144.16
2019-05-13T15:36:12.014Z,102151.92
2019-05-13T15:38:41.539Z,102149.40
2019-05-13T15:41:15.287Z,102141.04
2019-05-13T15:43:42.125Z,102157.69
2019-05-13T15:46:12.581Z,102138.17
2019-05-13T15:48:42.350Z,102141.81
2019-05-13T15:51:11.460Z,102133.97
2019-05-13T15:53:40.511Z,102152.91
2019-05-13T15:56:12.352Z,102146.78
2019-05-13T15:58:44.200Z,102147.84
2019-05-13T16:01:12.471Z,102138.06
2019-05-13T16:03:42.085Z,102150.25
2019-05-13T16:06:11.157Z,102147.11
2019-05-13T16:08:43.290Z,102146.21
2019-05-13T16:11:12.668Z,102146.48
2019-05-13T16:13:41.900Z,102149.78
2019-05-13T16:16:12.187Z,102151.39
2019-05-13T16:18:42.084Z,102141.19
2019-05-13T16:21:12.073Z,102150.33
2019-05-13T16:23:42.905Z,102148.64
2019-05-13T16:26:13.400Z,102150.05
2019-05-13T16:28:42.589Z,102146.39
2019-05-13T16:31:11.955Z,102144.83
2019-05-13T16:33:41.852Z,102151.67
2019-05-13T16:36:12.650Z,102154.06
2019-05-13T16:38:42.003Z,102151.41
2019-05-13T16:41:12.381Z,102162.05
2019-05-13T16:43:42.682Z,102157.14
2019-05-13T16:46:12.352Z,102153.81
2019-05-13T16:48:42.190Z,102149.76
2019-05-13T16:51:12.760Z,102146.72
2019-05-13T16:53:42.424Z,102152.40
2019-05-13T16:56:25.644Z,102146.31
2019-05-13T16:58:42.935Z,102145.28
2019-05-13T17:01:12.083Z,102155.91
2019-05-13T17:03:41.718Z,102156.48
2019-05-13T17:06:12.673Z,102151.84
2019-05-13T17:08:42.506Z,102146.74
2019-05-13T17:11:12.147Z,102143.95
2019-05-13T17:13:42.381Z,102148.02
2019-05-13T17:16:11.780Z,102144.30
2019-05-13T17:18:41.846Z,102149.94
2019-05-13T17:21:11.036Z,102148.82
2019-05-13T17:23:41.817Z,102157.91
2019-05-13T17:26:11.735Z,102148.58
2019-05-13T17:28:41.690Z,102148.91
2019-05-13T17:31:11.790Z,102149.30
2019-05-13T17:33:41.274Z,102148.48
2019-05-13T17:36:12.348Z,102151.46
2019-05-13T17:38:41.527Z,102150.03
2019-05-13T17:41:12.222Z,102142.34
2019-05-13T17:43:41.843Z,102153.11
2019-05-13T17:46:11.287Z,102145.84
2019-05-13T17:48:41.706Z,102151.89
2019-05-13T17:51:13.093Z,102147.62
2019-05-13T17:53:43.957Z,102153.30
2019-05-13T17:56:14.934Z,102156.15
2019-05-13T17:58:44.441Z,102157.12
2019-05-13T18:01:13.987Z,102159.73
2019-05-13T18:03:44.102Z,102163.70
2019-05-13T18:06:13.664Z,102165.80
2019-05-13T18:08:43.738Z,102170.66
2019-05-13T18:11:16.667Z,102166.99
2019-05-13T18:13:46.034Z,102166.84
2019-05-13T18:16:16.907Z,102172.57
2019-05-13T18:18:47.695Z,102167.83
2019-05-13T18:21:17.417Z,102163.13
2019-05-13T18:23:47.077Z,102168.64
2019-05-13T18:26:16.657Z,102164.45
2019-05-13T18:28:46.869Z,102166.70
2019-05-13T18:31:16.766Z,102161.31
2019-05-13T18:33:46.230Z,102164.12
2019-05-13T18:36:15.978Z,102162.70
2019-05-13T18:38:46.709Z,102154.88
2019-05-13T18:44:20.236Z,102160.44
2019-05-13T18:46:52.173Z,102162.22
2019-05-13T18:49:31.797Z,102164.05
2019-05-13T18:52:23.908Z,102165.58
2019-05-13T18:54:55.586Z,102161.50
2019-05-13T18:57:36.557Z,102169.65
2019-05-13T19:00:12.867Z,102172.27
2019-05-13T19:02:45.272Z,102176.64
2019-05-13T19:05:16.295Z,102177.78
2019-05-13T19:07:46.291Z,102180.36
2019-05-13T19:10:21.986Z,102180.54
2019-05-13T19:12:52.322Z,102182.30
2019-05-13T19:15:22.734Z,102184.34
2019-05-13T19:17:52.284Z,102176.92
2019-05-13T19:20:25.761Z,102182.14
2019-05-13T19:23:21.790Z,102183.20
2019-05-13T19:26:24.286Z,102187.27
2019-05-13T19:28:53.871Z,102190.58
2019-05-13T19:31:54.079Z,102194.06
2019-05-13T19:34:23.833Z,102189.59
2019-05-13T19:36:53.961Z,102191.43
2019-05-13T19:39:23.385Z,102192.20
2019-05-13T19:41:53.245Z,102194.86
2019-05-13T19:44:22.588Z,102193.49
2019-05-13T19:46:54.691Z,102194.03
2019-05-13T19:49:32.605Z,102195.00
2019-05-13T19:51:57.921Z,102194.59
2019-05-13T19:54:31.388Z,102194.85
2019-05-13T19:57:02.128Z,102195.06
2019-05-13T19:59:34.534Z,102199.95
2019-05-13T20:03:06.489Z,102195.20
2019-05-13T20:06:12.084Z,102196.62
2019-05-13T20:08:48.301Z,102198.78
2019-05-13T20:11:43.737Z,102200.35
2019-05-13T20:14:52.024Z,102199.95
2019-05-13T20:17:21.858Z,102197.13
2019-05-13T20:19:53.630Z,102192.55
2019-05-13T20:22:23.050Z,102191.17
2019-05-13T20:24:56.564Z,102195.53
2019-05-13T20:27:27.038Z,102192.18
2019-05-13T20:29:56.444Z,102194.29
2019-05-13T20:32:26.046Z,102200.27
2019-05-13T20:34:59.065Z,102200.22
2019-05-13T20:37:28.380Z,102196.94
2019-05-13T20:40:02.085Z,102196.02
2019-05-13T20:42:31.057Z,102197.78
2019-05-13T20:45:02.478Z,102194.56
2019-05-13T20:47:33.509Z,102201.87
2019-05-13T20:50:12.442Z,102198.00
2019-05-13T20:52:42.275Z,102208.15
2019-05-13T20:55:12.584Z,102202.63
2019-05-13T20:57:42.275Z,102196.37
2019-05-13T21:00:23.080Z,102195.13
2019-05-13T21:02:52.726Z,102199.13
2019-05-13T21:05:32.003Z,102196.86
2019-05-13T21:08:02.113Z,102194.67
2019-05-13T21:10:31.853Z,102191.52
2019-05-13T21:13:02.505Z,102190.58
2019-05-13T21:15:51.899Z,102188.28
2019-05-13T21:18:31.556Z,102192.97
2019-05-13T21:21:05.636Z,102188.48
2019-05-13T21:23:36.674Z,102183.90
2019-05-13T21:26:16.372Z,102184.95
2019-05-13T21:28:48.463Z,102183.03
2019-05-13T21:31:31.578Z,102184.35
2019-05-13T21:34:11.223Z,102181.66
2019-05-13T21:36:41.308Z,102190.07
2019-05-13T21:39:12.393Z,102190.39
2019-05-13T21:41:42.376Z,102186.09
2019-05-13T21:44:12.163Z,102182.78
2019-05-13T21:46:42.413Z,102188.74
2019-05-13T21:49:21.139Z,102187.22
2019-05-13T21:51:53.330Z,102193.60
2019-05-13T21:54:44.137Z,102186.02
2019-05-13T21:57:16.144Z,102184.98
2019-05-13T21:59:48.357Z,102185.19
2019-05-13T22:02:21.164Z,102187.06
2019-05-13T22:04:51.861Z,102184.33
2019-05-13T22:07:23.247Z,102195.22
2019-05-13T22:09:55.853Z,102195.05
2019-05-13T22:12:25.538Z,102197.44
2019-05-13T22:14:54.934Z,102190.66
2019-05-13T22:17:24.128Z,102193.11
2019-05-13T22:19:53.688Z,102188.40
2019-05-13T22:22:25.798Z,102185.47
2019-05-13T22:24:55.447Z,102185.95
2019-05-13T22:27:25.877Z,102185.17
2019-05-13T22:29:55.177Z,102178.54
2019-05-13T22:32:24.708Z,102181.19
2019-05-13T22:34:53.897Z,102189.02
2019-05-13T22:37:23.276Z,102189.24
2019-05-13T22:39:52.760Z,102187.58
2019-05-13T22:42:22.082Z,102187.48
2019-05-13T22:44:52.212Z,102181.45
2019-05-13T22:47:23.107Z,102178.05
2019-05-13T22:49:52.340Z,102182.81
2019-05-13T22:52:21.928Z,102179.78
2019-05-13T22:54:51.979Z,102176.00
2019-05-13T22:57:22.051Z,102172.84
2019-05-13T22:59:52.031Z,102169.41
2019-05-13T23:02:22.607Z,102171.39
2019-05-13T23:04:57.740Z,102168.95
2019-05-13T23:07:26.916Z,102171.59
2019-05-13T23:09:56.089Z,102168.27
2019-05-13T23:12:25.276Z,102168.89
2019-05-13T23:14:54.774Z,102167.05
2019-05-13T23:17:24.000Z,102164.77
2019-05-13T23:19:53.314Z,102163.01
2019-05-13T23:22:22.597Z,102164.30
2019-05-13T23:24:52.167Z,102156.95
2019-05-13T23:27:22.083Z,102161.54
2019-05-13T23:29:51.753Z,102157.34
2019-05-13T23:32:21.405Z,102156.19
2019-05-13T23:34:51.265Z,102162.71
2019-05-13T23:37:21.804Z,102150.75
2019-05-13T23:39:52.110Z,102154.33
2019-05-13T23:42:21.359Z,102154.09
2019-05-13T23:44:51.789Z,102155.84
2019-05-13T23:47:21.840Z,102151.77
2019-05-13T23:49:51.382Z,102146.42
2019-05-13T23:52:22.092Z,102141.66
2019-05-13T23:54:51.693Z,102144.31
2019-05-13T23:57:22.169Z,102139.14
2019-05-13T23:59:51.545Z,102137.23
